Time;durP1;ratioP1;P1;durP2;ratioP2;P2;SDS_P1;SDS_P2;PMS_P1;PMS_P2;Temp;Humidity;BMP_temperature;BMP_pressure;BME280_temperature;BME280_humidity;BME280_pressure;Samples;Min_cycle;Max_cycle;Signal;HPM_P1;HPM_P2
2023/11/23 00:00:49;;;;;;;6.85;3.75;;;;;;;5.99;82.12;101383.72;5010003;28;20025;-81
2023/11/23 00:03:17;;;;;;;6.10;4.18;;;;;;;6.00;82.67;101381.97;5006117;28;20537;-81
2023/11/23 00:05:46;;;;;;;4.65;3.45;;;;;;;5.99;82.54;101383.72;4994066;28;20099;-78
2023/11/23 00:08:13;;;;;;;6.63;4.45;;;;;;;6.01;83.00;101366.44;4998571;28;20532;-79
2023/11/23 00:10:40;;;;;;;10.43;4.43;;;;;;;6.05;83.58;101380.34;4998639;28;20095;-78
2023/11/23 00:13:07;;;;;;;7.10;4.75;;;;;;;6.03;84.14;101367.34;5016478;28;20512;-80
2023/11/23 00:15:37;;;;;;;11.15;4.68;;;;;;;5.99;84.83;101359.47;4993025;28;20049;-80
2023/11/23 00:18:04;;;;;;;6.15;4.38;;;;;;;6.05;85.85;101369.97;4985969;28;20062;-80
2023/11/23 00:20:33;;;;;;;8.65;5.38;;;;;;;6.09;85.80;101364.88;5008356;28;20055;-81
2023/11/23 00:23:00;;;;;;;9.90;4.82;;;;;;;6.04;86.33;101342.25;4991773;28;20046;-78
2023/11/23 00:25:27;;;;;;;8.35;4.65;;;;;;;6.06;87.02;101340.53;4996384;28;20088;-78
2023/11/23 00:27:54;;;;;;;8.70;4.40;;;;;;;6.09;87.45;101348.41;5000981;28;20046;-78
2023/11/23 00:30:21;;;;;;;8.50;4.78;;;;;;;6.10;86.97;101335.44;4993931;28;20046;-80
2023/11/23 00:32:48;;;;;;;8.25;5.00;;;;;;;6.02;87.73;101347.38;5004468;28;20261;-79
2023/11/23 00:35:14;;;;;;;8.65;5.00;;;;;;;6.02;87.75;101336.97;4998230;28;20055;-78
2023/11/23 00:37:44;;;;;;;10.18;5.30;;;;;;;6.00;88.62;101336.09;5003926;28;20049;-79
2023/11/23 00:40:15;;;;;;;9.18;5.25;;;;;;;6.01;89.52;101330.06;5013509;28;20512;-79
2023/11/23 00:42:42;;;;;;;11.85;5.07;;;;;;;5.97;90.58;101323.88;5036688;28;20037;-82
2023/11/23 00:45:09;;;;;;;9.45;5.47;;;;;;;6.04;90.61;101329.25;5015438;28;20038;-81
2023/11/23 00:47:36;;;;;;;17.90;6.53;;;;;;;6.03;91.53;101322.28;4993008;28;20056;-80
2023/11/23 00:50:05;;;;;;;10.77;6.72;;;;;;;6.03;91.72;101312.75;5005807;28;20080;-78
2023/11/23 00:52:31;;;;;;;11.25;6.05;;;;;;;6.03;92.04;101311.88;4990914;28;20513;-82
2023/11/23 00:54:58;;;;;;;8.68;5.25;;;;;;;6.02;92.46;101316.19;5009546;28;20045;-78
2023/11/23 00:57:25;;;;;;;10.98;6.80;;;;;;;6.06;92.58;101318.03;5013030;28;20065;-78
2023/11/23 00:59:51;;;;;;;10.07;5.85;;;;;;;6.01;93.85;101313.56;5001063;28;20041;-79
2023/11/23 01:02:19;;;;;;;14.20;7.32;;;;;;;6.03;93.57;101307.56;5005638;28;20101;-77
2023/11/23 01:04:48;;;;;;;9.93;6.00;;;;;;;6.06;93.98;101317.13;4998924;28;20054;-80
2023/11/23 01:07:18;;;;;;;11.52;6.53;;;;;;;6.05;94.81;101312.78;5005868;28;20045;-77
2023/11/23 01:09:45;;;;;;;9.98;6.13;;;;;;;6.05;96.13;101305.88;5003547;28;20045;-77
2023/11/23 01:12:12;;;;;;;11.27;6.95;;;;;;;6.06;96.23;101305.03;5004549;28;20049;-80
2023/11/23 01:14:39;;;;;;;9.73;6.55;;;;;;;6.10;95.95;101290.34;4999023;28;20053;-79
2023/11/23 01:17:06;;;;;;;8.40;6.05;;;;;;;6.12;95.93;101292.13;4986408;28;20160;-82
2023/11/23 01:19:33;;;;;;;12.52;7.55;;;;;;;6.12;96.46;101301.66;5004702;28;20060;-79
2023/11/23 01:22:00;;;;;;;14.75;6.57;;;;;;;6.12;97.07;101299.94;4986824;28;20768;-79
2023/11/23 01:24:29;;;;;;;13.65;7.07;;;;;;;6.09;97.55;101292.09;5002054;28;20058;-81
2023/11/23 01:26:56;;;;;;;14.20;7.38;;;;;;;6.03;98.93;101291.97;5002884;28;20056;-80
2023/11/23 01:29:23;;;;;;;15.75;7.97;;;;;;;6.17;99.13;101291.38;4987174;28;20049;-80
2023/11/23 01:31:50;;;;;;;13.57;8.30;;;;;;;6.12;100.00;101280.88;5013849;28;20081;-80
2023/11/23 01:34:18;;;;;;;15.35;9.18;;;;;;;6.11;100.00;101284.31;4986201;28;20057;-76
2023/11/23 01:36:44;;;;;;;11.85;7.82;;;;;;;6.12;100.00;101283.47;5017684;28;20203;-79
2023/11/23 01:39:11;;;;;;;15.10;7.68;;;;;;;6.11;100.00;101282.63;5020718;28;20065;-79
2023/11/23 01:41:38;;;;;;;12.85;7.78;;;;;;;6.16;100.00;101277.47;4999463;28;20045;-81
2023/11/23 01:44:08;;;;;;;13.57;8.70;;;;;;;6.06;100.00;101276.44;5001658;28;20348;-79
2023/11/23 01:46:35;;;;;;;17.63;9.88;;;;;;;6.14;100.00;101268.81;5000183;28;20068;-79
2023/11/23 01:49:06;;;;;;;14.82;9.32;;;;;;;6.12;100.00;101252.28;5003278;28;20486;-80
2023/11/23 01:51:33;;;;;;;14.60;8.52;;;;;;;6.11;100.00;101258.31;5001506;28;20363;-79
2023/11/23 01:54:00;;;;;;;14.25;9.02;;;;;;;6.16;100.00;101256.69;4999754;28;20052;-80
2023/11/23 01:56:29;;;;;;;16.17;9.35;;;;;;;6.12;100.00;101263.53;5011442;28;20454;-79
2023/11/23 01:58:56;;;;;;;12.95;8.07;;;;;;;6.14;100.00;101253.19;4998147;28;20069;-79
2023/11/23 02:01:23;;;;;;;16.92;10.07;;;;;;;6.14;100.00;101248.00;5007052;28;20046;-79
2023/11/23 02:03:50;;;;;;;16.33;10.07;;;;;;;6.16;100.00;101254.09;5004648;28;20106;-81
2023/11/23 02:06:18;;;;;;;17.42;10.23;;;;;;;6.22;100.00;101249.00;4999534;28;20062;-77
2023/11/23 02:08:54;;;;;;;13.57;8.38;;;;;;;6.21;100.00;101249.84;4994135;28;20100;-78
2023/11/23 02:11:20;;;;;;;17.08;10.25;;;;;;;6.20;100.00;101237.69;5006665;28;20124;-76
2023/11/23 02:13:47;;;;;;;14.95;9.73;;;;;;;6.22;100.00;101232.50;4997425;28;20049;-79
2023/11/23 02:16:14;;;;;;;18.33;9.77;;;;;;;6.18;100.00;101242.00;4995899;28;20124;-79
2023/11/23 02:18:41;;;;;;;15.50;9.18;;;;;;;6.17;100.00;101227.25;5002886;28;20045;-78
2023/11/23 02:21:07;;;;;;;17.25;10.13;;;;;;;6.22;100.00;101214.31;5006848;28;20076;-79
2023/11/23 02:23:35;;;;;;;15.85;9.32;;;;;;;6.24;100.00;101225.63;5009092;28;20044;-79
2023/11/23 02:26:02;;;;;;;16.63;10.18;;;;;;;6.23;100.00;101222.16;5006257;28;20034;-82
2023/11/23 02:28:33;;;;;;;16.67;10.45;;;;;;;6.29;100.00;101229.19;5015803;28;20064;-81
2023/11/23 02:31:00;;;;;;;17.17;10.25;;;;;;;6.29;100.00;101230.06;5011422;28;20063;-80
2023/11/23 02:33:27;;;;;;;17.77;9.88;;;;;;;6.28;100.00;101228.34;4989727;28;20378;-77
2023/11/23 02:35:54;;;;;;;16.67;9.95;;;;;;;6.34;100.00;101226.69;5020437;28;20077;-79
2023/11/23 02:38:21;;;;;;;18.33;10.05;;;;;;;6.37;100.00;101224.13;5008574;28;20076;-79
2023/11/23 02:40:48;;;;;;;16.25;11.00;;;;;;;6.33;100.00;101224.94;5004475;28;20648;-79
2023/11/23 02:43:20;;;;;;;16.95;10.43;;;;;;;6.36;100.00;101218.06;5004975;28;20148;-78
2023/11/23 02:45:47;;;;;;;24.08;10.63;;;;;;;6.39;100.00;101233.72;4997564;28;20125;-80
2023/11/23 02:48:14;;;;;;;17.63;10.88;;;;;;;6.39;100.00;101230.25;4990090;28;20045;-80
2023/11/23 02:50:40;;;;;;;21.70;10.60;;;;;;;6.39;100.00;101218.09;4995722;28;20037;-78
2023/11/23 02:53:16;;;;;;;16.63;10.52;;;;;;;6.43;100.00;101227.72;4997571;28;20042;-81
2023/11/23 02:55:43;;;;;;;17.20;10.90;;;;;;;6.43;100.00;101225.09;5000907;28;20099;-81
2023/11/23 02:58:10;;;;;;;19.70;10.80;;;;;;;6.45;100.00;101222.53;5008380;28;20045;-81
2023/11/23 03:00:36;;;;;;;16.88;10.32;;;;;;;6.49;100.00;101220.88;5001824;28;20533;-79
2023/11/23 03:03:03;;;;;;;26.23;12.38;;;;;;;6.42;100.00;101214.69;4987705;28;20855;-79
2023/11/23 03:05:30;;;;;;;16.00;10.70;;;;;;;6.45;100.00;101196.53;4997588;28;20045;-81
2023/11/23 03:07:57;;;;;;;20.58;12.02;;;;;;;6.50;100.00;101205.28;5002073;28;20134;-79
2023/11/23 03:10:24;;;;;;;22.58;11.15;;;;;;;6.52;100.00;101205.31;5004593;28;20771;-78
2023/11/23 03:12:53;;;;;;;19.63;11.55;;;;;;;6.46;100.00;101204.34;4998296;28;20133;-80
2023/11/23 03:15:22;;;;;;;22.90;12.00;;;;;;;6.54;100.00;101201.88;4998723;28;20050;-81
2023/11/23 03:17:49;;;;;;;17.98;11.70;;;;;;;6.56;100.00;101197.59;4993271;28;20143;-79
2023/11/23 03:20:19;;;;;;;19.23;11.45;;;;;;;6.59;100.00;101188.97;4996264;28;20517;-79
2023/11/23 03:22:45;;;;;;;23.48;12.57;;;;;;;6.58;100.00;101182.00;4997868;28;20038;-78
2023/11/23 03:25:12;;;;;;;20.38;12.23;;;;;;;6.57;100.00;101170.72;4993076;28;20051;-78
2023/11/23 03:27:38;;;;;;;16.50;10.80;;;;;;;6.57;100.00;101165.53;4998496;28;20515;-77
2023/11/23 03:30:06;;;;;;;19.63;11.35;;;;;;;6.65;100.00;101167.34;4998780;28;20107;-76
2023/11/23 03:32:33;;;;;;;20.05;11.80;;;;;;;6.57;100.00;101165.53;4993001;28;20100;-80
2023/11/23 03:35:00;;;;;;;19.80;10.45;;;;;;;6.60;100.00;101165.56;4988153;28;20549;-82
2023/11/23 03:37:28;;;;;;;21.55;11.80;;;;;;;6.60;100.00;101162.97;4996907;28;20045;-80
2023/11/23 03:39:56;;;;;;;19.40;12.88;;;;;;;6.62;100.00;101161.28;4997516;28;20058;-79
2023/11/23 03:42:22;;;;;;;21.63;11.45;;;;;;;6.67;100.00;101163.94;4997334;28;20141;-79
2023/11/23 03:44:51;;;;;;;21.55;12.27;;;;;;;6.69;100.00;101154.44;4996390;28;20053;-78
2023/11/23 03:47:18;;;;;;;20.05;12.57;;;;;;;6.70;100.00;101152.69;4994479;28;20156;-77
2023/11/23 03:49:45;;;;;;;21.45;14.45;;;;;;;6.64;100.00;101152.63;4992305;28;20137;-78
2023/11/23 03:52:11;;;;;;;22.67;14.70;;;;;;;6.71;100.00;101160.50;4993312;28;20745;-78
2023/11/23 03:54:38;;;;;;;24.52;13.23;;;;;;;6.66;100.00;101149.16;4989936;28;20073;-77
2023/11/23 03:57:06;;;;;;;22.23;13.60;;;;;;;6.65;100.00;101152.63;4984814;28;20167;-78
2023/11/23 03:59:38;;;;;;;23.48;14.10;;;;;;;6.69;100.00;101145.72;4980719;28;20125;-78
2023/11/23 04:02:05;;;;;;;20.67;12.95;;;;;;;6.71;100.00;101133.63;4990342;28;20050;-78
2023/11/23 04:04:34;;;;;;;18.67;13.18;;;;;;;6.75;100.00;101141.53;4990192;28;20056;-78
2023/11/23 04:07:01;;;;;;;19.90;12.82;;;;;;;6.78;100.00;101141.56;4992338;28;20048;-81
2023/11/23 04:09:35;;;;;;;18.25;11.52;;;;;;;6.81;100.00;101135.53;4998335;28;20078;-78
2023/11/23 04:12:08;;;;;;;19.50;12.40;;;;;;;6.85;100.00;101137.31;4975199;28;20550;-80
2023/11/23 04:14:34;;;;;;;25.00;12.48;;;;;;;6.87;100.00;101138.22;4993936;28;20088;-78
2023/11/23 04:17:01;;;;;;;21.45;12.80;;;;;;;6.86;100.00;101140.81;4984047;28;20061;-79
2023/11/23 04:19:28;;;;;;;20.63;11.90;;;;;;;6.88;100.00;101142.56;4999745;28;20045;-79
2023/11/23 04:21:55;;;;;;;19.75;12.50;;;;;;;6.90;100.00;101124.38;4978049;28;20062;-79
2023/11/23 04:24:22;;;;;;;18.20;11.82;;;;;;;6.94;100.00;101136.56;4978779;28;20063;-78
2023/11/23 04:26:51;;;;;;;18.63;12.02;;;;;;;6.92;100.00;101126.16;4975114;28;20371;-80
2023/11/23 04:29:18;;;;;;;19.63;12.95;;;;;;;6.99;100.00;101127.09;4987031;28;20064;-78
2023/11/23 04:31:45;;;;;;;20.48;13.13;;;;;;;6.97;100.00;101123.59;4979471;28;20110;-77
2023/11/23 04:34:15;;;;;;;19.17;11.48;;;;;;;6.99;100.00;101118.38;4996914;28;20057;-81
2023/11/23 04:36:43;;;;;;;21.52;13.85;;;;;;;7.03;100.00;101125.41;4984595;28;20042;-81
2023/11/23 04:39:12;;;;;;;16.10;12.45;;;;;;;7.02;100.00;101136.69;4984885;28;20042;-79
2023/11/23 04:41:39;;;;;;;18.60;12.57;;;;;;;7.07;100.00;101130.66;4978070;28;20049;-80
2023/11/23 04:44:06;;;;;;;15.57;11.32;;;;;;;7.07;100.00;101127.19;4977772;28;20070;-81
2023/11/23 04:46:34;;;;;;;17.55;11.02;;;;;;;7.08;100.00;101124.59;5000058;28;20046;-80
2023/11/23 04:49:01;;;;;;;19.83;11.35;;;;;;;7.09;100.00;101121.16;4980926;28;20073;-81
2023/11/23 04:51:28;;;;;;;15.30;10.77;;;;;;;7.15;100.00;101124.69;4964859;28;20077;-78
2023/11/23 04:53:56;;;;;;;17.25;10.40;;;;;;;7.12;100.00;101129.00;4979976;28;20089;-80
2023/11/23 04:56:24;;;;;;;15.48;10.63;;;;;;;7.09;100.00;101126.38;4976616;28;20069;-79
2023/11/23 04:58:50;;;;;;;17.30;11.18;;;;;;;7.10;100.00;101111.59;4982322;28;20046;-81
2023/11/23 05:01:17;;;;;;;15.35;11.27;;;;;;;7.21;100.00;101125.66;4966800;28;20049;-79
2023/11/23 05:03:43;;;;;;;14.68;11.20;;;;;;;7.22;100.00;101122.19;4984739;28;20042;-79
2023/11/23 05:06:15;;;;;;;15.20;10.50;;;;;;;7.27;100.00;101122.22;4999466;28;20065;-79
2023/11/23 05:08:46;;;;;;;17.88;11.73;;;;;;;7.27;100.00;101122.22;4981376;28;20045;-80
2023/11/23 05:11:14;;;;;;;19.00;10.25;;;;;;;7.27;100.00;101111.81;4979836;28;20054;-79
2023/11/23 05:13:40;;;;;;;15.25;11.10;;;;;;;7.32;100.00;101109.28;4981855;28;20033;-80
2023/11/23 05:16:08;;;;;;;16.45;11.45;;;;;;;7.33;100.00;101111.03;4978396;28;20041;-79
2023/11/23 05:18:41;;;;;;;15.15;10.00;;;;;;;7.38;100.00;101111.94;4995589;28;20126;-81
2023/11/23 05:21:08;;;;;;;16.58;11.23;;;;;;;7.41;100.00;101102.44;4964510;28;20755;-80
2023/11/23 05:23:35;;;;;;;16.42;11.88;;;;;;;7.41;100.00;101105.03;4980798;28;20026;-82
2023/11/23 05:26:03;;;;;;;18.85;11.35;;;;;;;7.40;100.00;101112.84;4975703;28;20113;-78
2023/11/23 05:28:29;;;;;;;13.25;10.30;;;;;;;7.41;100.00;101101.56;4980210;28;20038;-80
2023/11/23 05:30:59;;;;;;;19.25;12.75;;;;;;;7.39;100.00;101106.75;4997553;28;22061;-77
2023/11/23 05:33:26;;;;;;;16.65;11.18;;;;;;;7.49;100.00;101099.91;4994724;28;20593;-77
2023/11/23 05:35:52;;;;;;;16.83;11.93;;;;;;;7.47;100.00;101083.41;4976633;28;20128;-77
2023/11/23 05:38:19;;;;;;;17.83;12.25;;;;;;;7.51;100.00;101084.28;4997231;28;20551;-77
2023/11/23 05:40:49;;;;;;;20.77;12.82;;;;;;;7.48;100.00;101076.47;4979521;28;20042;-77
2023/11/23 05:43:19;;;;;;;15.60;10.82;;;;;;;7.51;100.00;101079.97;4977865;28;20034;-77
2023/11/23 05:45:56;;;;;;;17.13;11.18;;;;;;;7.51;100.00;101082.56;4973297;28;20483;-78
2023/11/23 05:48:26;;;;;;;16.52;12.02;;;;;;;7.53;100.00;101075.63;4986472;28;20049;-80
2023/11/23 05:50:53;;;;;;;19.17;12.90;;;;;;;7.57;100.00;101079.16;4981329;28;20553;-81
2023/11/23 05:53:21;;;;;;;20.30;13.43;;;;;;;7.61;100.00;101083.53;4968163;28;20124;-79
2023/11/23 05:55:50;;;;;;;17.50;12.75;;;;;;;7.66;100.00;101071.44;4962576;28;20060;-79
2023/11/23 05:58:20;;;;;;;16.17;11.73;;;;;;;7.64;100.00;101067.06;4965385;28;20420;-79
2023/11/23 06:00:49;;;;;;;20.42;12.82;;;;;;;7.69;100.00;101067.97;4976950;28;20153;-79
2023/11/23 06:03:15;;;;;;;20.00;13.10;;;;;;;7.74;100.00;101061.97;4995694;28;20420;-80
2023/11/23 06:05:42;;;;;;;21.23;13.20;;;;;;;7.77;100.00;101071.56;4975970;28;20046;-79
2023/11/23 06:08:09;;;;;;;23.48;13.10;;;;;;;7.82;100.00;101054.19;4965599;28;20129;-80
2023/11/23 06:10:39;;;;;;;18.48;12.93;;;;;;;7.86;100.00;101066.41;4981866;28;20077;-78
2023/11/23 06:13:06;;;;;;;20.55;12.60;;;;;;;7.84;100.00;101077.69;4976936;28;20042;-79
2023/11/23 06:15:32;;;;;;;19.15;12.57;;;;;;;7.88;100.00;101074.25;4975720;28;20078;-79
2023/11/23 06:17:59;;;;;;;19.02;12.50;;;;;;;7.94;100.00;101069.09;4976646;28;20123;-79
2023/11/23 06:20:25;;;;;;;22.05;13.15;;;;;;;7.94;100.00;101051.69;4966515;28;20853;-78
2023/11/23 06:22:59;;;;;;;19.70;13.00;;;;;;;7.97;100.00;101066.50;4996100;28;20045;-77
2023/11/23 06:25:25;;;;;;;17.02;11.95;;;;;;;7.97;100.00;101053.47;4974437;28;20050;-80
2023/11/23 06:27:53;;;;;;;18.48;12.73;;;;;;;8.03;100.00;101050.91;4984049;28;20053;-80
2023/11/23 06:30:19;;;;;;;20.20;13.18;;;;;;;8.05;100.00;101043.97;4950290;28;20053;-78
2023/11/23 06:32:47;;;;;;;17.60;13.10;;;;;;;8.08;100.00;101024.84;4978088;28;20080;-81
2023/11/23 06:35:14;;;;;;;19.50;13.00;;;;;;;8.09;100.00;101024.88;4981518;28;20109;-79
2023/11/23 06:37:42;;;;;;;19.10;13.60;;;;;;;8.14;100.00;101040.56;4980735;28;20489;-80
2023/11/23 06:40:09;;;;;;;19.30;13.07;;;;;;;8.14;100.00;101032.72;4995846;28;20046;-80
2023/11/23 06:42:37;;;;;;;21.27;13.27;;;;;;;8.17;100.00;101037.09;4983245;28;20153;-81
2023/11/23 06:45:04;;;;;;;26.73;14.93;;;;;;;8.10;100.00;101039.66;4981695;28;20034;-81
2023/11/23 06:47:33;;;;;;;20.35;14.13;;;;;;;8.08;100.00;101028.34;4965605;28;20478;-78
2023/11/23 06:50:00;;;;;;;23.60;14.70;;;;;;;8.09;100.00;101043.13;4965061;28;20046;-81
2023/11/23 06:52:27;;;;;;;23.52;14.77;;;;;;;8.04;100.00;101047.41;4986209;28;20053;-80
2023/11/23 06:54:55;;;;;;;25.63;15.07;;;;;;;8.10;100.00;101036.19;4983102;28;20133;-79
2023/11/23 07:47:52;;;;;;;18.65;10.75;;;;;;;8.72;100.00;100966.09;5027030;23;20037;-81
2023/11/23 07:50:19;;;;;;;20.55;11.40;;;;;;;8.78;100.00;100963.53;4850983;29;20052;-81
2023/11/23 07:52:47;;;;;;;18.48;11.40;;;;;;;8.82;100.00;100969.63;4863659;29;20056;-81
2023/11/23 07:55:15;;;;;;;15.98;10.25;;;;;;;8.83;100.00;100958.34;4861931;29;20635;-81
2023/11/23 07:57:48;;;;;;;14.95;10.70;;;;;;;8.91;100.00;100948.78;4862646;29;20892;-81
2023/11/23 08:00:15;;;;;;;15.97;10.77;;;;;;;8.91;100.00;100935.72;4840619;29;20532;-81
2023/11/23 08:02:42;;;;;;;13.55;10.43;;;;;;;8.96;100.00;100935.72;4858052;29;20057;-82
2023/11/23 08:05:15;;;;;;;17.20;11.07;;;;;;;9.02;100.00;100940.97;4844500;29;20049;-82
2023/11/23 08:07:46;;;;;;;13.48;9.55;;;;;;;9.00;100.00;100946.19;4850934;29;20117;-82
2023/11/23 08:10:16;;;;;;;13.13;10.00;;;;;;;9.04;100.00;100924.44;4861635;29;20049;-81
2023/11/23 08:12:44;;;;;;;17.02;11.00;;;;;;;9.08;100.00;100930.53;4846686;29;20061;-82
2023/11/23 08:15:13;;;;;;;16.25;10.70;;;;;;;9.09;100.00;100929.66;4853368;29;20045;-82
2023/11/23 08:17:40;;;;;;;15.15;9.23;;;;;;;9.17;100.00;100933.16;4858055;29;20148;-79
2023/11/23 08:20:09;;;;;;;15.10;10.63;;;;;;;9.19;100.00;100934.03;4862493;29;20113;-82
2023/11/23 08:22:38;;;;;;;16.35;10.38;;;;;;;9.30;100.00;100936.66;4846438;29;20068;-82
2023/11/23 08:25:06;;;;;;;18.65;9.93;;;;;;;9.33;100.00;100927.94;4838750;29;20060;-82
2023/11/23 08:27:33;;;;;;;12.55;9.57;;;;;;;9.40;100.00;100929.72;4845237;29;20102;-81
2023/11/23 08:30:02;;;;;;;23.35;10.27;;;;;;;9.39;100.00;100910.53;4857434;29;20057;-82
2023/11/23 08:32:29;;;;;;;13.48;9.73;;;;;;;9.44;100.00;100906.16;4830189;29;20060;-81
2023/11/23 08:35:00;;;;;;;15.35;8.90;;;;;;;9.50;100.00;100905.28;4839145;29;20060;-82
2023/11/23 08:37:27;;;;;;;15.00;8.82;;;;;;;9.52;100.00;100906.16;4830466;29;20501;-82
2023/11/23 08:39:55;;;;;;;13.48;9.25;;;;;;;9.55;100.00;100918.38;4826943;29;20095;-81
2023/11/23 08:42:22;;;;;;;13.15;10.10;;;;;;;9.57;100.00;100909.66;4842171;29;20069;-81
2023/11/23 08:44:49;;;;;;;14.80;10.23;;;;;;;9.56;100.00;100912.28;4824370;29;20130;-82
2023/11/23 08:47:16;;;;;;;15.05;10.00;;;;;;;9.63;100.00;100900.06;4838835;29;20957;-80
2023/11/23 08:49:43;;;;;;;15.05;10.20;;;;;;;9.59;100.00;100888.75;4851451;29;20074;-81
2023/11/23 08:52:09;;;;;;;12.98;9.75;;;;;;;9.63;100.00;100881.78;4852821;29;20174;-80
2023/11/23 08:54:37;;;;;;;17.63;10.60;;;;;;;9.57;100.00;100864.38;4821279;29;20057;-81
2023/11/23 08:57:03;;;;;;;24.13;10.93;;;;;;;9.62;100.00;100861.72;4839228;29;20056;-80
2023/11/23 08:59:31;;;;;;;12.73;10.55;;;;;;;9.68;100.00;100873.03;4825920;29;20060;-81
2023/11/23 09:01:58;;;;;;;15.32;10.38;;;;;;;9.71;100.00;100854.75;4838562;29;20052;-81
2023/11/23 09:04:25;;;;;;;17.17;9.77;;;;;;;9.75;100.00;100852.97;4843223;29;20058;-81
2023/11/23 09:06:54;;;;;;;15.55;9.82;;;;;;;9.79;100.00;100838.16;4843815;29;20465;-82
2023/11/23 09:09:21;;;;;;;13.88;8.93;;;;;;;9.79;100.00;100820.75;4835644;29;20042;-82
2023/11/23 09:11:49;;;;;;;13.02;9.73;;;;;;;9.84;100.00;100852.09;4822122;29;20113;-82
2023/11/23 09:14:16;;;;;;;15.65;9.45;;;;;;;9.87;100.00;100834.66;4839815;29;20049;-80
2023/11/23 09:16:42;;;;;;;12.98;9.30;;;;;;;9.90;100.00;100839.00;4828664;29;20051;-82
2023/11/23 09:19:09;;;;;;;15.00;7.95;;;;;;;9.93;100.00;100855.56;4826856;29;20953;-81
2023/11/23 09:21:36;;;;;;;11.45;8.98;;;;;;;9.99;100.00;100857.28;4826264;29;20112;-82
2023/11/23 09:24:05;;;;;;;13.70;9.00;;;;;;;9.94;100.00;100854.66;4839083;29;20056;-81
2023/11/23 09:26:33;;;;;;;13.73;9.13;;;;;;;9.93;100.00;100836.38;4822807;29;20065;-82
2023/11/23 09:29:02;;;;;;;12.52;9.10;;;;;;;9.98;100.00;100839.84;4820921;29;20049;-82
2023/11/23 09:31:31;;;;;;;15.05;8.02;;;;;;;9.99;100.00;100838.13;4841665;29;20048;-81
2023/11/23 09:34:00;;;;;;;12.38;9.35;;;;;;;10.03;100.00;100832.00;4828068;29;20072;-80
2023/11/23 09:36:32;;;;;;;15.00;8.88;;;;;;;9.99;100.00;100830.28;4843023;29;20064;-81
2023/11/23 09:39:00;;;;;;;13.88;8.60;;;;;;;10.02;100.00;100822.41;4829889;29;20276;-80
2023/11/23 09:41:36;;;;;;;12.43;9.18;;;;;;;10.00;100.00;100826.75;4828216;29;20060;-81
2023/11/23 09:44:06;;;;;;;14.88;9.80;;;;;;;9.96;100.00;100817.19;4839638;29;20077;-81
2023/11/23 09:46:43;;;;;;;11.27;8.27;;;;;;;9.99;100.00;100828.50;4834811;29;20113;-81
2023/11/23 09:49:15;;;;;;;16.70;10.48;;;;;;;10.03;100.00;100825.00;4845209;29;20049;-83
2023/11/23 09:51:48;;;;;;;13.98;8.85;;;;;;;10.03;100.00;100832.00;4837864;29;20229;-81
2023/11/23 09:54:27;;;;;;;13.10;10.05;;;;;;;10.04;100.00;100828.50;4837770;29;20049;-81
2023/11/23 09:56:55;;;;;;;15.80;9.82;;;;;;;9.99;100.00;100807.59;4854256;29;20113;-81
2023/11/23 09:59:23;;;;;;;12.25;9.57;;;;;;;10.03;100.00;100800.59;4844689;29;20506;-81
2023/11/23 10:01:54;;;;;;;16.75;9.80;;;;;;;9.99;100.00;100796.28;4827501;29;20585;-83
2023/11/23 10:04:22;;;;;;;13.82;10.15;;;;;;;10.02;100.00;100798.88;4839868;29;20067;-80
2023/11/23 10:06:50;;;;;;;16.15;10.93;;;;;;;10.04;100.00;100784.91;4838834;29;20049;-82
2023/11/23 10:09:18;;;;;;;13.77;9.15;;;;;;;10.12;100.00;100779.63;4831104;29;20049;-81
2023/11/23 10:11:47;;;;;;;12.88;9.27;;;;;;;10.12;100.00;100781.38;4834012;29;21134;-82
2023/11/23 10:14:15;;;;;;;14.45;10.93;;;;;;;10.19;100.00;100780.47;4832380;29;20092;-82
2023/11/23 10:16:46;;;;;;;12.02;8.65;;;;;;;10.14;100.00;100772.63;4839733;29;20052;-82
2023/11/23 10:19:23;;;;;;;13.10;9.55;;;;;;;10.20;100.00;100788.31;4830601;29;20096;-82
2023/11/23 10:21:58;;;;;;;19.45;10.00;;;;;;;10.16;100.00;100777.88;4836271;29;20061;-81
2023/11/23 10:24:26;;;;;;;15.10;9.90;;;;;;;10.24;100.00;100763.00;4843240;29;20106;-81
2023/11/23 10:26:53;;;;;;;15.85;8.85;;;;;;;10.26;100.00;100764.72;4838316;29;20061;-82
2023/11/23 10:29:23;;;;;;;10.77;8.57;;;;;;;10.26;100.00;100766.50;4830704;29;20477;-81
2023/11/23 10:31:51;;;;;;;11.88;8.98;;;;;;;10.26;100.00;100756.03;4827221;29;20057;-82
2023/11/23 10:34:31;;;;;;;13.52;7.90;;;;;;;10.26;100.00;100740.34;4825646;29;20061;-82
2023/11/23 10:36:58;;;;;;;12.50;8.07;;;;;;;10.34;100.00;100758.56;4831628;29;20072;-80
2023/11/23 10:39:27;;;;;;;11.10;8.30;;;;;;;10.30;100.00;100746.38;4844806;29;20415;-81
2023/11/23 10:41:54;;;;;;;12.43;8.43;;;;;;;10.32;100.00;100728.94;4840754;29;20087;-81
2023/11/23 10:44:21;;;;;;;9.35;7.95;;;;;;;10.37;100.00;100729.81;4826940;29;20113;-82
2023/11/23 10:46:59;;;;;;;12.15;7.97;;;;;;;10.38;100.00;100727.19;4827417;29;20057;-82
2023/11/23 10:49:34;;;;;;;11.93;7.60;;;;;;;10.38;100.00;100715.84;4828720;29;20051;-82
2023/11/23 10:52:08;;;;;;;7.55;6.75;;;;;;;10.40;100.00;100693.16;4837687;29;20061;-83
2023/11/23 10:54:36;;;;;;;12.48;7.43;;;;;;;10.47;100.00;100713.16;4827956;29;20045;-82
2023/11/23 10:57:10;;;;;;;10.10;6.00;;;;;;;10.46;100.00;100707.94;4839279;29;20497;-82
2023/11/23 10:59:39;;;;;;;8.35;6.60;;;;;;;10.54;100.00;100695.66;4825631;29;20069;-81
2023/11/23 11:02:07;;;;;;;11.05;6.85;;;;;;;10.51;100.00;100682.63;4854109;29;20140;-83
2023/11/23 11:04:34;;;;;;;11.10;6.47;;;;;;;10.55;100.00;100671.22;4841366;29;20426;-82
2023/11/23 11:07:04;;;;;;;7.95;6.50;;;;;;;10.60;100.00;100664.22;4835313;29;20049;-81
2023/11/23 11:09:34;;;;;;;6.00;5.40;;;;;;;10.67;100.00;100673.72;4841067;29;20046;-83
2023/11/23 11:12:07;;;;;;;7.43;5.75;;;;;;;10.66;100.00;100650.19;4821623;29;20612;-81
2023/11/23 11:14:36;;;;;;;13.27;6.55;;;;;;;10.69;100.00;100655.38;4826115;29;20085;-82
2023/11/23 11:17:05;;;;;;;17.52;6.32;;;;;;;10.76;100.00;100660.53;4823671;29;20086;-81
2023/11/23 11:19:49;;;;;;;7.88;5.95;;;;;;;10.73;100.00;100654.50;4828787;29;20046;-81
2023/11/23 11:22:17;;;;;;;7.45;5.32;;;;;;;10.74;100.00;100638.75;4829789;29;20064;-82
2023/11/23 11:24:45;;;;;;;8.30;4.72;;;;;;;10.74;100.00;100630.03;4840178;29;20452;-82
2023/11/23 11:27:13;;;;;;;7.18;5.38;;;;;;;10.72;100.00;100627.44;4837035;29;20049;-83
2023/11/23 11:29:50;;;;;;;9.40;5.38;;;;;;;10.77;100.00;100609.06;4825453;29;20049;-82
2023/11/23 11:32:17;;;;;;;7.80;5.43;;;;;;;10.74;100.00;100603.84;4822258;29;20065;-81
2023/11/23 11:34:44;;;;;;;9.90;5.38;;;;;;;10.78;100.00;100615.16;4822408;29;20050;-81
2023/11/23 11:37:12;;;;;;;10.93;4.65;;;;;;;10.81;100.00;100591.53;4837665;29;20136;-82
2023/11/23 11:39:40;;;;;;;6.88;4.38;;;;;;;10.82;100.00;100607.25;4846181;29;20049;-82
2023/11/23 11:42:10;;;;;;;8.45;4.53;;;;;;;10.86;100.00;100608.97;4835716;29;20072;-82
2023/11/23 11:44:43;;;;;;;8.00;4.03;;;;;;;10.84;100.00;100605.47;4838344;29;20041;-82
2023/11/23 11:47:12;;;;;;;8.27;4.50;;;;;;;10.83;100.00;100606.34;4831959;29;20570;-81
2023/11/23 11:49:40;;;;;;;14.85;4.63;;;;;;;10.82;100.00;100607.25;4829535;29;20080;-81
2023/11/23 11:52:13;;;;;;;6.68;4.68;;;;;;;10.83;100.00;100589.78;4824736;29;20370;-82
2023/11/23 11:54:40;;;;;;;11.45;5.13;;;;;;;10.91;100.00;100599.31;4838684;29;20052;-82
2023/11/23 11:57:07;;;;;;;12.32;4.10;;;;;;;10.89;100.00;100598.44;4826260;29;20501;-81
2023/11/23 11:59:35;;;;;;;7.50;4.38;;;;;;;10.90;100.00;100594.94;4835986;29;20130;-82
2023/11/23 12:02:05;;;;;;;6.32;4.00;;;;;;;10.95;100.00;100588.78;4821436;29;20068;-83
2023/11/23 12:04:35;;;;;;;5.53;3.88;;;;;;;10.94;100.00;100608.88;4819592;29;20056;-82
2023/11/23 12:07:02;;;;;;;4.82;3.70;;;;;;;10.92;100.00;100587.94;4819745;29;20058;-81
2023/11/23 12:09:30;;;;;;;6.88;3.90;;;;;;;10.93;100.00;100594.91;4841660;29;20676;-82